sensor_id;sensor_type;location;lat;lon;timestamp;pressure;altitude;pressure_sealevel;temperature;humidity
30730;BME280;17476;48.458;7.928;2023-04-08T00:02:16;100330.34;;;9.52;88.65
30730;BME280;17476;48.458;7.928;2023-04-08T00:04:42;100326.09;;;9.51;89.49
30730;BME280;17476;48.458;7.928;2023-04-08T00:07:08;100318.44;;;9.49;88.86
30730;BME280;17476;48.458;7.928;2023-04-08T00:09:33;100322.13;;;9.47;90.77
30730;BME280;17476;48.458;7.928;2023-04-08T00:11:59;100322.94;;;9.29;90.48
30730;BME280;17476;48.458;7.928;2023-04-08T00:14:25;100321.28;;;9.28;90.07
30730;BME280;17476;48.458;7.928;2023-04-08T00:16:51;100317.00;;;9.27;88.96
30730;BME280;17476;48.458;7.928;2023-04-08T00:19:17;100315.38;;;9.26;87.87
30730;BME280;17476;48.458;7.928;2023-04-08T00:21:43;100321.72;;;9.24;87.45
30730;BME280;17476;48.458;7.928;2023-04-08T00:24:09;100329.97;;;9.19;87.76
30730;BME280;17476;48.458;7.928;2023-04-08T00:26:35;100327.38;;;9.19;87.46
30730;BME280;17476;48.458;7.928;2023-04-08T00:29:01;100335.34;;;9.18;86.26
30730;BME280;17476;48.458;7.928;2023-04-08T00:31:26;100329.59;;;9.14;87.61
30730;BME280;17476;48.458;7.928;2023-04-08T00:33:52;100333.31;;;9.12;87.84
30730;BME280;17476;48.458;7.928;2023-04-08T00:36:18;100326.59;;;9.09;87.49
30730;BME280;17476;48.458;7.928;2023-04-08T00:38:44;100331.81;;;9.09;88.26
30730;BME280;17476;48.458;7.928;2023-04-08T00:41:10;100336.22;;;9.09;88.43
30730;BME280;17476;48.458;7.928;2023-04-08T00:43:35;100330.19;;;9.08;89.25
30730;BME280;17476;48.458;7.928;2023-04-08T00:46:01;100338.94;;;9.07;88.49
30730;BME280;17476;48.458;7.928;2023-04-08T00:48:28;100343.09;;;9.10;89.48
30730;BME280;17476;48.458;7.928;2023-04-08T00:50:54;100338.53;;;9.12;89.35
30730;BME280;17476;48.458;7.928;2023-04-08T00:53:20;100337.28;;;9.16;89.23
30730;BME280;17476;48.458;7.928;2023-04-08T00:55:46;100336.06;;;9.10;91.53
30730;BME280;17476;48.458;7.928;2023-04-08T00:58:13;100332.00;;;8.98;93.43
30730;BME280;17476;48.458;7.928;2023-04-08T01:00:45;100331.75;;;8.91;93.64
30730;BME280;17476;48.458;7.928;2023-04-08T01:06:21;100330.63;;;8.94;93.17
30730;BME280;17476;48.458;7.928;2023-04-08T01:08:50;100339.72;;;8.90;92.32
30730;BME280;17476;48.458;7.928;2023-04-08T01:11:17;100336.00;;;8.92;92.42
30730;BME280;17476;48.458;7.928;2023-04-08T01:13:43;100333.78;;;8.97;92.00
30730;BME280;17476;48.458;7.928;2023-04-08T01:16:14;100336.28;;;8.89;94.18
30730;BME280;17476;48.458;7.928;2023-04-08T01:18:43;100334.41;;;8.82;95.54
30730;BME280;17476;48.458;7.928;2023-04-08T01:21:11;100340.44;;;8.72;94.73
30730;BME280;17476;48.458;7.928;2023-04-08T01:26:41;100345.81;;;8.81;94.36
30730;BME280;17476;48.458;7.928;2023-04-08T01:29:08;100348.13;;;8.84;93.54
30730;BME280;17476;48.458;7.928;2023-04-08T01:31:36;100340.69;;;8.89;92.83
30730;BME280;17476;48.458;7.928;2023-04-08T01:34:03;100348.06;;;8.93;92.48
30730;BME280;17476;48.458;7.928;2023-04-08T01:36:31;100341.75;;;8.96;92.85
30730;BME280;17476;48.458;7.928;2023-04-08T01:39:00;100349.59;;;8.96;92.20
30730;BME280;17476;48.458;7.928;2023-04-08T01:41:28;100339.56;;;9.01;92.60
30730;BME280;17476;48.458;7.928;2023-04-08T01:43:54;100339.00;;;8.97;93.39
30730;BME280;17476;48.458;7.928;2023-04-08T01:46:21;100346.56;;;8.91;94.98
30730;BME280;17476;48.458;7.928;2023-04-08T01:48:47;100346.56;;;8.91;93.45
30730;BME280;17476;48.458;7.928;2023-04-08T01:51:14;100344.06;;;8.99;93.04
30730;BME280;17476;48.458;7.928;2023-04-08T01:53:41;100347.66;;;8.98;93.76
30730;BME280;17476;48.458;7.928;2023-04-08T01:56:11;100352.47;;;8.93;94.23
30730;BME280;17476;48.458;7.928;2023-04-08T01:58:47;100346.28;;;8.94;93.02
30730;BME280;17476;48.458;7.928;2023-04-08T02:01:19;100346.69;;;8.99;92.56
30730;BME280;17476;48.458;7.928;2023-04-08T02:03:46;100342.53;;;9.06;92.04
30730;BME280;17476;48.458;7.928;2023-04-08T02:06:13;100347.31;;;9.11;91.20
30730;BME280;17476;48.458;7.928;2023-04-08T02:08:39;100346.91;;;9.15;91.41
30730;BME280;17476;48.458;7.928;2023-04-08T02:11:05;100345.25;;;9.14;92.84
30730;BME280;17476;48.458;7.928;2023-04-08T02:13:31;100356.03;;;9.01;94.91
30730;BME280;17476;48.458;7.928;2023-04-08T02:16:09;100345.47;;;8.93;93.29
30730;BME280;17476;48.458;7.928;2023-04-08T02:18:43;100350.81;;;9.01;93.26
30730;BME280;17476;48.458;7.928;2023-04-08T02:21:14;100346.66;;;9.09;92.42
30730;BME280;17476;48.458;7.928;2023-04-08T02:23:41;100341.13;;;9.12;92.15
30730;BME280;17476;48.458;7.928;2023-04-08T02:26:15;100343.31;;;9.16;91.88
30730;BME280;17476;48.458;7.928;2023-04-08T02:28:41;100348.25;;;9.19;91.00
30730;BME280;17476;48.458;7.928;2023-04-08T02:31:10;100350.03;;;9.19;91.28
30730;BME280;17476;48.458;7.928;2023-04-08T02:33:41;100342.88;;;9.21;89.99
30730;BME280;17476;48.458;7.928;2023-04-08T02:36:08;100337.81;;;9.19;91.37
30730;BME280;17476;48.458;7.928;2023-04-08T02:38:34;100343.91;;;9.10;91.99
30730;BME280;17476;48.458;7.928;2023-04-08T02:41:00;100342.25;;;9.09;91.31
30730;BME280;17476;48.458;7.928;2023-04-08T02:43:26;100350.75;;;9.11;90.71
30730;BME280;17476;48.458;7.928;2023-04-08T02:45:58;100344.72;;;9.11;90.81
30730;BME280;17476;48.458;7.928;2023-04-08T02:48:25;100344.56;;;9.12;91.00
30730;BME280;17476;48.458;7.928;2023-04-08T02:50:51;100346.91;;;9.15;90.71
30730;BME280;17476;48.458;7.928;2023-04-08T02:53:16;100339.59;;;9.19;90.05
30730;BME280;17476;48.458;7.928;2023-04-08T02:55:42;100342.34;;;9.17;90.22
30730;BME280;17476;48.458;7.928;2023-04-08T02:58:08;100341.13;;;9.21;90.45
30730;BME280;17476;48.458;7.928;2023-04-08T03:00:34;100344.66;;;9.20;90.06
30730;BME280;17476;48.458;7.928;2023-04-08T03:03:00;100346.34;;;9.21;89.56
30730;BME280;17476;48.458;7.928;2023-04-08T03:05:26;100340.13;;;9.22;90.01
30730;BME280;17476;48.458;7.928;2023-04-08T03:07:52;100343.41;;;9.24;91.12
30730;BME280;17476;48.458;7.928;2023-04-08T03:10:18;100341.78;;;9.23;89.97
30730;BME280;17476;48.458;7.928;2023-04-08T03:12:43;100338.88;;;9.26;90.53
30730;BME280;17476;48.458;7.928;2023-04-08T03:15:09;100339.84;;;9.25;89.78
30730;BME280;17476;48.458;7.928;2023-04-08T03:17:35;100344.25;;;9.25;90.48
30730;BME280;17476;48.458;7.928;2023-04-08T03:20:01;100344.09;;;9.26;90.28
30730;BME280;17476;48.458;7.928;2023-04-08T03:22:29;100343.25;;;9.26;90.79
30730;BME280;17476;48.458;7.928;2023-04-08T03:24:55;100341.94;;;9.22;92.21
30730;BME280;17476;48.458;7.928;2023-04-08T03:27:21;100339.75;;;9.17;92.04
30730;BME280;17476;48.458;7.928;2023-04-08T03:29:47;100350.03;;;9.19;91.56
30730;BME280;17476;48.458;7.928;2023-04-08T03:32:13;100344.66;;;9.20;92.02
30730;BME280;17476;48.458;7.928;2023-04-08T03:34:38;100340.31;;;9.11;91.79
30730;BME280;17476;48.458;7.928;2023-04-08T03:37:05;100347.47;;;9.09;92.32
30730;BME280;17476;48.458;7.928;2023-04-08T03:39:30;100342.53;;;9.06;93.65
30730;BME280;17476;48.458;7.928;2023-04-08T03:41:56;100348.31;;;9.00;93.15
30730;BME280;17476;48.458;7.928;2023-04-08T03:44:24;100343.41;;;8.97;93.21
30730;BME280;17476;48.458;7.928;2023-04-08T03:46:50;100347.94;;;8.95;93.07
30730;BME280;17476;48.458;7.928;2023-04-08T03:49:15;100349.44;;;8.97;92.60
30730;BME280;17476;48.458;7.928;2023-04-08T03:51:41;100348.06;;;8.93;93.45
30730;BME280;17476;48.458;7.928;2023-04-08T03:54:07;100350.16;;;8.90;92.91
30730;BME280;17476;48.458;7.928;2023-04-08T03:56:33;100343.41;;;8.87;92.60
30730;BME280;17476;48.458;7.928;2023-04-08T03:58:59;100346.28;;;8.94;91.81
30730;BME280;17476;48.458;7.928;2023-04-08T04:01:25;100343.00;;;8.92;92.19
30730;BME280;17476;48.458;7.928;2023-04-08T04:03:50;100344.13;;;8.89;91.50
30730;BME280;17476;48.458;7.928;2023-04-08T04:06:16;100339.41;;;8.93;91.55
30730;BME280;17476;48.458;7.928;2023-04-08T04:08:42;100345.19;;;8.96;92.27
30730;BME280;17476;48.458;7.928;2023-04-08T04:11:08;100348.41;;;8.81;94.69
30730;BME280;17476;48.458;7.928;2023-04-08T04:13:34;100353.13;;;8.67;95.26
30730;BME280;17476;48.458;7.928;2023-04-08T04:15:59;100354.75;;;8.68;94.86
30730;BME280;17476;48.458;7.928;2023-04-08T04:18:25;100360.91;;;8.77;93.71
30730;BME280;17476;48.458;7.928;2023-04-08T04:20:51;100351.41;;;8.86;93.16
30730;BME280;17476;48.458;7.928;2023-04-08T04:23:17;100356.19;;;8.90;92.06
30730;BME280;17476;48.458;7.928;2023-04-08T04:25:43;100350.69;;;8.93;91.38
30730;BME280;17476;48.458;7.928;2023-04-08T04:28:09;100355.78;;;8.95;91.29
30730;BME280;17476;48.458;7.928;2023-04-08T04:30:38;100359.19;;;8.95;90.99
30730;BME280;17476;48.458;7.928;2023-04-08T04:33:05;100368.38;;;8.99;91.03
30730;BME280;17476;48.458;7.928;2023-04-08T04:35:32;100355.47;;;8.98;91.88
30730;BME280;17476;48.458;7.928;2023-04-08T04:37:58;100361.00;;;8.95;92.31
30730;BME280;17476;48.458;7.928;2023-04-08T04:40:24;100364.53;;;8.94;91.32
30730;BME280;17476;48.458;7.928;2023-04-08T04:42:50;100363.44;;;8.96;91.41
30730;BME280;17476;48.458;7.928;2023-04-08T04:45:15;100371.44;;;8.95;92.99
30730;BME280;17476;48.458;7.928;2023-04-08T04:47:41;100367.44;;;8.91;92.17
30730;BME280;17476;48.458;7.928;2023-04-08T04:50:07;100371.94;;;8.98;92.35
30730;BME280;17476;48.458;7.928;2023-04-08T04:52:35;100373.03;;;9.06;91.97
30730;BME280;17476;48.458;7.928;2023-04-08T04:55:02;100376.28;;;9.08;92.00
30730;BME280;17476;48.458;7.928;2023-04-08T04:57:28;100380.69;;;9.07;91.03
30730;BME280;17476;48.458;7.928;2023-04-08T04:59:53;100376.19;;;9.09;90.97
30730;BME280;17476;48.458;7.928;2023-04-08T05:02:19;100383.28;;;9.17;91.26
30730;BME280;17476;48.458;7.928;2023-04-08T05:04:45;100380.31;;;9.02;92.86
30730;BME280;17476;48.458;7.928;2023-04-08T05:07:11;100383.34;;;8.97;93.03
30730;BME280;17476;48.458;7.928;2023-04-08T05:09:37;100384.56;;;9.03;91.89
30730;BME280;17476;48.458;7.928;2023-04-08T05:12:03;100384.00;;;9.09;91.73
30730;BME280;17476;48.458;7.928;2023-04-08T05:14:29;100382.47;;;9.16;92.06
30730;BME280;17476;48.458;7.928;2023-04-08T05:16:55;100385.34;;;9.13;93.53
30730;BME280;17476;48.458;7.928;2023-04-08T05:19:21;100386.63;;;9.09;92.42
30730;BME280;17476;48.458;7.928;2023-04-08T05:21:47;100390.88;;;9.10;92.50
30730;BME280;17476;48.458;7.928;2023-04-08T05:24:13;100387.03;;;9.05;93.46
30730;BME280;17476;48.458;7.928;2023-04-08T05:26:39;100391.59;;;8.93;95.62
30730;BME280;17476;48.458;7.928;2023-04-08T05:29:05;100389.94;;;8.92;95.94
30730;BME280;17476;48.458;7.928;2023-04-08T05:31:30;100396.16;;;8.81;96.27
30730;BME280;17476;48.458;7.928;2023-04-08T05:33:56;100392.75;;;8.81;95.58
30730;BME280;17476;48.458;7.928;2023-04-08T05:36:22;100396.69;;;8.94;95.17
30730;BME280;17476;48.458;7.928;2023-04-08T05:38:48;100391.72;;;9.01;94.68
30730;BME280;17476;48.458;7.928;2023-04-08T05:41:14;100393.63;;;8.99;95.90
30730;BME280;17476;48.458;7.928;2023-04-08T05:43:40;100394.44;;;8.99;94.93
30730;BME280;17476;48.458;7.928;2023-04-08T05:46:09;100395.56;;;8.87;97.28
30730;BME280;17476;48.458;7.928;2023-04-08T05:48:36;100398.53;;;8.74;98.72
30730;BME280;17476;48.458;7.928;2023-04-08T05:51:02;100402.50;;;8.59;100.00
30730;BME280;17476;48.458;7.928;2023-04-08T05:53:28;100403.06;;;8.63;99.76
30730;BME280;17476;48.458;7.928;2023-04-08T05:55:54;100403.72;;;8.74;98.39
30730;BME280;17476;48.458;7.928;2023-04-08T05:58:20;100405.50;;;8.84;98.02
30730;BME280;17476;48.458;7.928;2023-04-08T06:00:46;100403.13;;;8.90;97.25
30730;BME280;17476;48.458;7.928;2023-04-08T06:03:11;100410.09;;;8.99;95.60
30730;BME280;17476;48.458;7.928;2023-04-08T06:05:37;100420.38;;;9.11;94.87
30730;BME280;17476;48.458;7.928;2023-04-08T06:08:03;100421.31;;;9.19;94.89
30730;BME280;17476;48.458;7.928;2023-04-08T06:10:29;100425.03;;;9.17;94.79
30730;BME280;17476;48.458;7.928;2023-04-08T06:12:55;100429.59;;;9.15;94.75
30730;BME280;17476;48.458;7.928;2023-04-08T06:15:21;100428.47;;;9.08;95.39
30730;BME280;17476;48.458;7.928;2023-04-08T06:17:47;100438.50;;;9.12;95.05
30730;BME280;17476;48.458;7.928;2023-04-08T06:20:13;100434.09;;;9.22;94.68
30730;BME280;17476;48.458;7.928;2023-04-08T06:22:38;100435.97;;;9.30;93.45
30730;BME280;17476;48.458;7.928;2023-04-08T06:25:05;100433.47;;;9.38;92.90
30730;BME280;17476;48.458;7.928;2023-04-08T06:27:31;100436.03;;;9.48;91.67
30730;BME280;17476;48.458;7.928;2023-04-08T06:29:57;100439.13;;;9.61;90.84
30730;BME280;17476;48.458;7.928;2023-04-08T06:32:23;100437.97;;;9.73;90.71
30730;BME280;17476;48.458;7.928;2023-04-08T06:34:49;100437.31;;;9.71;89.78
30730;BME280;17476;48.458;7.928;2023-04-08T06:37:15;100438.13;;;9.72;90.83
30730;BME280;17476;48.458;7.928;2023-04-08T06:39:41;100441.47;;;9.64;91.30
30730;BME280;17476;48.458;7.928;2023-04-08T06:42:07;100440.31;;;9.49;92.56
30730;BME280;17476;48.458;7.928;2023-04-08T06:44:32;100450.19;;;9.45;93.31
30730;BME280;17476;48.458;7.928;2023-04-08T06:46:58;100449.78;;;9.50;92.21
30730;BME280;17476;48.458;7.928;2023-04-08T06:49:24;100449.25;;;9.74;91.30
30730;BME280;17476;48.458;7.928;2023-04-08T06:51:51;100446.13;;;9.88;89.95
30730;BME280;17476;48.458;7.928;2023-04-08T06:54:17;100440.47;;;9.93;90.63
30730;BME280;17476;48.458;7.928;2023-04-08T06:56:44;100435.19;;;10.02;89.18
30730;BME280;17476;48.458;7.928;2023-04-08T06:59:10;100444.31;;;10.16;87.82
30730;BME280;17476;48.458;7.928;2023-04-08T07:01:36;100444.44;;;10.15;88.50
30730;BME280;17476;48.458;7.928;2023-04-08T07:04:01;100440.03;;;10.25;88.22
30730;BME280;17476;48.458;7.928;2023-04-08T07:06:27;100443.69;;;10.32;86.34
30730;BME280;17476;48.458;7.928;2023-04-08T07:08:53;100449.22;;;10.47;85.86
30730;BME280;17476;48.458;7.928;2023-04-08T07:11:19;100448.81;;;10.42;85.99
30730;BME280;17476;48.458;7.928;2023-04-08T07:13:45;100451.09;;;10.36;85.81
30730;BME280;17476;48.458;7.928;2023-04-08T07:16:11;100449.53;;;10.44;86.41
30730;BME280;17476;48.458;7.928;2023-04-08T07:18:37;100447.47;;;10.55;84.80
30730;BME280;17476;48.458;7.928;2023-04-08T07:21:03;100452.91;;;10.62;84.99
30730;BME280;17476;48.458;7.928;2023-04-08T07:23:29;100453.28;;;10.67;84.60
30730;BME280;17476;48.458;7.928;2023-04-08T07:25:55;100450.91;;;10.74;84.06
30730;BME280;17476;48.458;7.928;2023-04-08T07:28:20;100455.16;;;10.75;83.42
30730;BME280;17476;48.458;7.928;2023-04-08T07:30:46;100455.38;;;10.81;83.10
30730;BME280;17476;48.458;7.928;2023-04-08T07:33:12;100461.94;;;10.85;82.03
30730;BME280;17476;48.458;7.928;2023-04-08T07:35:39;100455.94;;;10.93;82.22
30730;BME280;17476;48.458;7.928;2023-04-08T07:38:10;100463.16;;;10.91;82.72
30730;BME280;17476;48.458;7.928;2023-04-08T07:40:40;100476.09;;;10.75;83.85
30730;BME280;17476;48.458;7.928;2023-04-08T07:43:09;100461.38;;;10.74;85.66
30730;BME280;17476;48.458;7.928;2023-04-08T07:45:34;100462.94;;;10.84;84.66
30730;BME280;17476;48.458;7.928;2023-04-08T07:48:00;100466.69;;;11.08;84.64
30730;BME280;17476;48.458;7.928;2023-04-08T07:50:26;100464.63;;;11.19;84.99
30730;BME280;17476;48.458;7.928;2023-04-08T07:52:52;100464.16;;;11.24;83.86
30730;BME280;17476;48.458;7.928;2023-04-08T07:55:18;100469.25;;;11.26;84.10
30730;BME280;17476;48.458;7.928;2023-04-08T07:57:44;100471.75;;;11.35;83.10
30730;BME280;17476;48.458;7.928;2023-04-08T08:00:11;100462.03;;;11.54;82.86
30730;BME280;17476;48.458;7.928;2023-04-08T08:02:37;100465.19;;;11.65;81.91
30730;BME280;17476;48.458;7.928;2023-04-08T08:05:03;100470.44;;;11.65;80.88
30730;BME280;17476;48.458;7.928;2023-04-08T08:07:28;100477.41;;;11.57;81.31
30730;BME280;17476;48.458;7.928;2023-04-08T08:09:55;100471.94;;;11.76;81.92
30730;BME280;17476;48.458;7.928;2023-04-08T08:12:21;100474.19;;;12.05;81.66
30730;BME280;17476;48.458;7.928;2023-04-08T08:14:46;100473.59;;;12.36;81.70
30730;BME280;17476;48.458;7.928;2023-04-08T08:17:12;100480.34;;;12.63;80.83
30730;BME280;17476;48.458;7.928;2023-04-08T08:19:38;100480.50;;;12.85;79.31
30730;BME280;17476;48.458;7.928;2023-04-08T08:22:04;100481.66;;;12.99;76.88
30730;BME280;17476;48.458;7.928;2023-04-08T08:24:29;100485.75;;;13.10;77.36
30730;BME280;17476;48.458;7.928;2023-04-08T08:26:55;100485.09;;;13.24;76.68
30730;BME280;17476;48.458;7.928;2023-04-08T08:29:21;100487.38;;;13.27;75.73
30730;BME280;17476;48.458;7.928;2023-04-08T08:31:47;100486.88;;;13.32;74.55
30730;BME280;17476;48.458;7.928;2023-04-08T08:34:13;100488.03;;;13.37;73.29
30730;BME280;17476;48.458;7.928;2023-04-08T08:36:39;100496.25;;;13.26;74.12
30730;BME280;17476;48.458;7.928;2023-04-08T08:39:05;100490.81;;;13.36;74.90
30730;BME280;17476;48.458;7.928;2023-04-08T08:41:34;100494.41;;;13.43;75.47
30730;BME280;17476;48.458;7.928;2023-04-08T08:44:04;100494.72;;;13.56;74.25
30730;BME280;17476;48.458;7.928;2023-04-08T08:46:29;100492.06;;;13.64;73.23
30730;BME280;17476;48.458;7.928;2023-04-08T08:48:56;100493.16;;;13.78;72.67
30730;BME280;17476;48.458;7.928;2023-04-08T08:51:22;100496.91;;;13.84;73.56
30730;BME280;17476;48.458;7.928;2023-04-08T08:53:48;100499.00;;;13.97;73.10
30730;BME280;17476;48.458;7.928;2023-04-08T08:56:14;100497.44;;;14.10;73.36
30730;BME280;17476;48.458;7.928;2023-04-08T08:58:40;100498.66;;;14.31;73.44
30730;BME280;17476;48.458;7.928;2023-04-08T09:01:35;100488.34;;;14.52;72.37
30730;BME280;17476;48.458;7.928;2023-04-08T09:06:43;100498.13;;;15.04;70.46
30730;BME280;17476;48.458;7.928;2023-04-08T09:09:10;100493.06;;;15.17;69.35
30730;BME280;17476;48.458;7.928;2023-04-08T09:11:40;100491.78;;;15.28;70.39
30730;BME280;17476;48.458;7.928;2023-04-08T09:14:24;100489.44;;;15.48;69.20
30730;BME280;17476;48.458;7.928;2023-04-08T09:16:50;100495.81;;;15.68;67.74
30730;BME280;17476;48.458;7.928;2023-04-08T09:19:17;100493.97;;;15.83;67.40
30730;BME280;17476;48.458;7.928;2023-04-08T09:21:43;100496.84;;;16.03;65.38
30730;BME280;17476;48.458;7.928;2023-04-08T09:24:27;100494.91;;;16.12;66.67
30730;BME280;17476;48.458;7.928;2023-04-08T09:26:53;100492.81;;;16.22;65.62
30730;BME280;17476;48.458;7.928;2023-04-08T09:29:23;100503.44;;;16.29;63.94
30730;BME280;17476;48.458;7.928;2023-04-08T09:31:57;100501.28;;;16.18;62.96
30730;BME280;17476;48.458;7.928;2023-04-08T09:34:24;100497.59;;;16.33;63.81
30730;BME280;17476;48.458;7.928;2023-04-08T09:36:52;100489.50;;;16.56;63.50
30730;BME280;17476;48.458;7.928;2023-04-08T09:39:18;100494.75;;;16.71;64.34
30730;BME280;17476;48.458;7.928;2023-04-08T09:41:48;100493.84;;;16.85;62.71
30730;BME280;17476;48.458;7.928;2023-04-08T09:44:16;100491.13;;;17.00;63.02
30730;BME280;17476;48.458;7.928;2023-04-08T09:52:23;100491.13;;;17.63;58.86
30730;BME280;17476;48.458;7.928;2023-04-08T09:55:07;100496.34;;;17.91;58.54
30730;BME280;17476;48.458;7.928;2023-04-08T09:58:07;100498.25;;;18.10;57.07
30730;BME280;17476;48.458;7.928;2023-04-08T10:00:46;100497.09;;;18.39;57.96
30730;BME280;17476;48.458;7.928;2023-04-08T10:03:31;100494.50;;;18.59;57.00
30730;BME280;17476;48.458;7.928;2023-04-08T10:06:01;100500.53;;;18.26;52.95
30730;BME280;17476;48.458;7.928;2023-04-08T10:08:28;100499.88;;;18.05;54.07
30730;BME280;17476;48.458;7.928;2023-04-08T10:10:55;100503.66;;;17.82;54.34
30730;BME280;17476;48.458;7.928;2023-04-08T10:13:22;100506.13;;;17.56;53.93
30730;BME280;17476;48.458;7.928;2023-04-08T10:15:48;100504.97;;;17.30;55.13
30730;BME280;17476;48.458;7.928;2023-04-08T10:20:44;100504.25;;;17.15;55.03
30730;BME280;17476;48.458;7.928;2023-04-08T10:23:16;100498.81;;;17.23;56.34
30730;BME280;17476;48.458;7.928;2023-04-08T10:25:44;100502.16;;;17.38;56.41
30730;BME280;17476;48.458;7.928;2023-04-08T10:30:49;100499.75;;;17.78;54.45
30730;BME280;17476;48.458;7.928;2023-04-08T10:38:36;100494.09;;;17.88;57.72
30730;BME280;17476;48.458;7.928;2023-04-08T10:41:02;100477.84;;;17.91;54.08
30730;BME280;17476;48.458;7.928;2023-04-08T10:43:33;100484.00;;;18.05;53.95
30730;BME280;17476;48.458;7.928;2023-04-08T10:45:59;100491.47;;;17.94;52.46
30730;BME280;17476;48.458;7.928;2023-04-08T10:48:26;100496.94;;;17.86;53.78
30730;BME280;17476;48.458;7.928;2023-04-08T10:51:04;100479.72;;;18.04;54.35
30730;BME280;17476;48.458;7.928;2023-04-08T10:53:37;100480.94;;;18.14;52.77
30730;BME280;17476;48.458;7.928;2023-04-08T10:58:34;100472.28;;;18.53;51.40
30730;BME280;17476;48.458;7.928;2023-04-08T11:01:07;100476.59;;;18.68;53.01
30730;BME280;17476;48.458;7.928;2023-04-08T11:03:34;100472.28;;;19.20;53.51
30730;BME280;17476;48.458;7.928;2023-04-08T11:06:01;100465.75;;;19.94;54.69
30730;BME280;17476;48.458;7.928;2023-04-08T11:08:29;100457.38;;;20.85;47.03
30730;BME280;17476;48.458;7.928;2023-04-08T11:10:55;100450.38;;;21.70;47.22
30730;BME280;17476;48.458;7.928;2023-04-08T11:13:21;100457.50;;;22.60;42.17
30730;BME280;17476;48.458;7.928;2023-04-08T11:15:49;100448.25;;;22.63;41.91
30730;BME280;17476;48.458;7.928;2023-04-08T11:18:15;100462.16;;;22.65;42.62
30730;BME280;17476;48.458;7.928;2023-04-08T11:20:43;100460.63;;;22.45;43.37
30730;BME280;17476;48.458;7.928;2023-04-08T11:23:15;100464.59;;;21.94;42.89
30730;BME280;17476;48.458;7.928;2023-04-08T11:25:43;100461.09;;;21.45;42.98
30730;BME280;17476;48.458;7.928;2023-04-08T11:28:10;100465.34;;;21.10;44.42
30730;BME280;17476;48.458;7.928;2023-04-08T11:30:39;100464.94;;;20.88;44.56
30730;BME280;17476;48.458;7.928;2023-04-08T11:33:08;100459.38;;;20.64;44.15
30730;BME280;17476;48.458;7.928;2023-04-08T11:35:39;100462.94;;;20.20;46.43
30730;BME280;17476;48.458;7.928;2023-04-08T11:38:07;100462.75;;;20.15;44.88
30730;BME280;17476;48.458;7.928;2023-04-08T11:40:33;100460.94;;;19.71;45.31
30730;BME280;17476;48.458;7.928;2023-04-08T11:42:59;100463.00;;;19.55;48.21
30730;BME280;17476;48.458;7.928;2023-04-08T11:45:24;100458.38;;;19.44;46.64
30730;BME280;17476;48.458;7.928;2023-04-08T11:47:50;100457.50;;;19.50;47.21
30730;BME280;17476;48.458;7.928;2023-04-08T11:50:24;100451.78;;;19.53;45.98
30730;BME280;17476;48.458;7.928;2023-04-08T11:52:52;100453.41;;;19.68;48.14
30730;BME280;17476;48.458;7.928;2023-04-08T11:55:30;100454.78;;;20.15;46.96
30730;BME280;17476;48.458;7.928;2023-04-08T11:58:04;100446.53;;;20.86;44.96
30730;BME280;17476;48.458;7.928;2023-04-08T12:00:30;100440.38;;;21.66;43.24
30730;BME280;17476;48.458;7.928;2023-04-08T12:02:57;100450.28;;;22.49;46.22
30730;BME280;17476;48.458;7.928;2023-04-08T12:05:26;100444.34;;;22.88;38.01
30730;BME280;17476;48.458;7.928;2023-04-08T12:07:52;100434.59;;;23.06;38.14
30730;BME280;17476;48.458;7.928;2023-04-08T12:10:18;100433.34;;;23.72;40.33
30730;BME280;17476;48.458;7.928;2023-04-08T12:12:44;100436.72;;;24.58;38.93
30730;BME280;17476;48.458;7.928;2023-04-08T12:15:10;100423.97;;;24.65;35.78
30730;BME280;17476;48.458;7.928;2023-04-08T12:17:36;100429.25;;;24.77;34.49
30730;BME280;17476;48.458;7.928;2023-04-08T12:20:04;100420.31;;;25.05;35.46
30730;BME280;17476;48.458;7.928;2023-04-08T12:22:30;100421.63;;;25.90;34.84
30730;BME280;17476;48.458;7.928;2023-04-08T12:24:56;100422.34;;;26.39;30.63
30730;BME280;17476;48.458;7.928;2023-04-08T12:27:22;100421.16;;;26.57;35.10
30730;BME280;17476;48.458;7.928;2023-04-08T12:29:48;100422.75;;;25.99;33.11
30730;BME280;17476;48.458;7.928;2023-04-08T12:32:15;100420.59;;;25.96;32.91
30730;BME280;17476;48.458;7.928;2023-04-08T12:34:41;100428.03;;;25.67;32.88
30730;BME280;17476;48.458;7.928;2023-04-08T12:37:07;100421.44;;;25.31;32.35
30730;BME280;17476;48.458;7.928;2023-04-08T12:39:33;100422.66;;;25.01;33.44
30730;BME280;17476;48.458;7.928;2023-04-08T12:41:58;100420.19;;;24.61;33.35
30730;BME280;17476;48.458;7.928;2023-04-08T12:44:24;100420.19;;;24.44;34.72
30730;BME280;17476;48.458;7.928;2023-04-08T12:46:50;100421.81;;;24.45;34.57
30730;BME280;17476;48.458;7.928;2023-04-08T12:49:16;100408.16;;;24.30;33.63
30730;BME280;17476;48.458;7.928;2023-04-08T12:51:42;100422.66;;;24.17;32.75
30730;BME280;17476;48.458;7.928;2023-04-08T12:54:08;100414.47;;;24.07;34.44
30730;BME280;17476;48.458;7.928;2023-04-08T12:56:33;100414.50;;;23.79;35.58
30730;BME280;17476;48.458;7.928;2023-04-08T12:59:00;100416.53;;;23.48;34.32
30730;BME280;17476;48.458;7.928;2023-04-08T13:01:26;100414.50;;;23.15;33.57
30730;BME280;17476;48.458;7.928;2023-04-08T13:03:52;100412.00;;;22.97;35.85
30730;BME280;17476;48.458;7.928;2023-04-08T13:06:18;100416.72;;;22.59;35.71
30730;BME280;17476;48.458;7.928;2023-04-08T13:08:44;100416.28;;;22.09;32.89
30730;BME280;17476;48.458;7.928;2023-04-08T13:11:10;100419.47;;;21.51;34.55
30730;BME280;17476;48.458;7.928;2023-04-08T13:13:36;100412.09;;;21.35;35.21
30730;BME280;17476;48.458;7.928;2023-04-08T13:16:02;100423.00;;;21.08;38.05
30730;BME280;17476;48.458;7.928;2023-04-08T13:18:28;100423.56;;;20.92;38.31
30730;BME280;17476;48.458;7.928;2023-04-08T13:20:54;100414.75;;;20.73;37.46
30730;BME280;17476;48.458;7.928;2023-04-08T13:23:20;100426.38;;;20.54;39.04